createdAt,value
2022-12-01T00:04:44.896Z,26.83
2022-12-01T00:10:04.667Z,26.60
2022-12-01T00:15:06.264Z,27.17
2022-12-01T00:20:08.023Z,24.45
2022-12-01T00:25:09.572Z,22.55
2022-12-01T00:30:11.979Z,21.35
2022-12-01T00:35:13.740Z,22.75
2022-12-01T00:40:15.198Z,20.63
2022-12-01T00:45:16.693Z,17.88
2022-12-01T00:50:18.156Z,25.83
2022-12-01T00:55:19.608Z,23.33
2022-12-01T01:00:21.211Z,24.60
2022-12-01T01:05:23.276Z,24.75
2022-12-01T01:10:24.740Z,21.75
2022-12-01T01:15:26.193Z,27.13
2022-12-01T01:20:27.768Z,28.15
2022-12-01T01:25:29.227Z,21.08
2022-12-01T01:30:30.737Z,29.35
2022-12-01T01:35:32.237Z,28.10
2022-12-01T01:40:33.682Z,28.70
2022-12-01T01:45:35.292Z,26.25
2022-12-01T01:50:36.806Z,25.17
2022-12-01T01:55:38.254Z,27.88
2022-12-01T02:00:40.569Z,29.52
2022-12-01T02:05:42.028Z,29.52
2022-12-01T02:10:58.707Z,28.33
2022-12-01T02:16:08.088Z,26.10
2022-12-01T02:21:28.387Z,33.75
2022-12-01T02:26:49.206Z,28.30
2022-12-01T02:32:05.389Z,29.35
2022-12-01T02:37:43.830Z,29.02
2022-12-01T02:43:08.436Z,26.13
2022-12-01T02:48:28.110Z,30.42
2022-12-01T02:53:29.580Z,31.52
2022-12-01T02:58:31.110Z,28.15
2022-12-01T03:03:45.051Z,32.40
2022-12-01T03:09:15.728Z,33.17
2022-12-01T03:14:24.874Z,32.55
2022-12-01T03:19:34.787Z,30.80
2022-12-01T03:24:36.275Z,32.45
2022-12-01T03:29:41.291Z,28.70
2022-12-01T03:34:45.976Z,25.98
2022-12-01T03:39:48.456Z,25.95
2022-12-01T03:44:53.406Z,25.38
2022-12-01T03:49:54.900Z,23.63
2022-12-01T03:55:12.733Z,24.48
2022-12-01T04:00:14.465Z,22.83
2022-12-01T04:05:17.317Z,26.77
2022-12-01T04:10:20.407Z,27.90
2022-12-01T04:15:21.867Z,24.67
2022-12-01T04:20:23.334Z,25.02
2022-12-01T04:25:24.805Z,24.45
2022-12-01T04:30:26.254Z,24.55
2022-12-01T04:35:27.713Z,22.33
2022-12-01T04:40:29.161Z,21.00
2022-12-01T04:45:30.625Z,20.75
2022-12-01T04:50:32.079Z,25.75
2022-12-01T04:55:38.888Z,21.85
2022-12-01T05:00:40.441Z,19.95
2022-12-01T05:05:41.956Z,22.80
2022-12-01T05:10:43.439Z,22.25
2022-12-01T05:15:44.890Z,23.85
2022-12-01T05:20:58.019Z,21.17
2022-12-01T05:25:59.637Z,21.17
2022-12-01T05:31:01.245Z,17.60
2022-12-01T05:36:02.807Z,18.73
2022-12-01T05:41:04.308Z,23.10
2022-12-01T05:46:05.965Z,24.83
2022-12-01T05:51:09.159Z,27.30
2022-12-01T05:56:10.735Z,32.25
2022-12-01T06:01:12.200Z,35.70
2022-12-01T06:06:13.669Z,35.60
2022-12-01T06:11:15.122Z,33.50
2022-12-01T06:16:16.609Z,40.15
2022-12-01T06:21:18.074Z,33.20
2022-12-01T06:26:19.551Z,36.05
2022-12-01T06:31:21.055Z,31.65
2022-12-01T06:36:22.557Z,39.35
2022-12-01T06:41:24.085Z,37.10
2022-12-01T06:46:25.866Z,35.30
2022-12-01T06:51:27.412Z,33.90
2022-12-01T06:56:28.893Z,36.17
2022-12-01T07:01:30.653Z,33.08
2022-12-01T07:06:32.284Z,37.38
2022-12-01T07:11:36.313Z,36.40
2022-12-01T07:16:37.835Z,44.97
2022-12-01T07:21:39.371Z,49.85
2022-12-01T07:26:41.267Z,46.25
2022-12-01T07:31:42.812Z,52.53
2022-12-01T07:36:44.258Z,41.45
2022-12-01T07:41:45.711Z,41.45
2022-12-01T07:46:47.225Z,44.58
2022-12-01T07:51:48.720Z,44.47
2022-12-01T07:56:50.247Z,40.97
2022-12-01T08:01:51.829Z,52.67
2022-12-01T08:06:53.324Z,52.38
2022-12-01T08:11:54.821Z,58.22
2022-12-01T08:16:56.274Z,63.20
2022-12-01T08:21:57.757Z,57.60
2022-12-01T08:26:59.203Z,59.63
2022-12-01T08:32:00.655Z,64.82
2022-12-01T08:37:02.143Z,67.45
2022-12-01T08:42:03.670Z,66.53
2022-12-01T08:47:05.126Z,60.55
2022-12-01T08:52:06.605Z,61.85
2022-12-01T08:57:08.125Z,59.88
2022-12-01T09:02:14.144Z,54.95
2022-12-01T09:07:19.146Z,54.10
2022-12-01T09:12:24.427Z,47.47
2022-12-01T09:17:25.923Z,53.78
2022-12-01T09:22:27.385Z,48.08
2022-12-01T09:27:28.831Z,49.25
2022-12-01T09:32:30.288Z,43.42
2022-12-01T09:37:31.751Z,41.00
2022-12-01T09:42:35.492Z,34.78
2022-12-01T09:47:37.371Z,35.75
2022-12-01T09:52:41.174Z,42.40
2022-12-01T09:57:43.013Z,42.90
2022-12-01T10:03:08.696Z,43.92
2022-12-01T10:08:13.316Z,40.92
2022-12-01T10:13:20.335Z,39.05
2022-12-01T10:18:36.103Z,38.50
2022-12-01T10:24:05.459Z,34.22
2022-12-01T10:29:29.630Z,32.42
2022-12-01T10:34:35.464Z,34.95
2022-12-01T10:39:38.163Z,37.38
2022-12-01T10:44:40.171Z,34.40
2022-12-01T10:49:41.644Z,29.98
2022-12-01T10:54:43.103Z,33.47
2022-12-01T11:00:00.343Z,28.30
2022-12-01T11:05:05.628Z,27.35
2022-12-01T11:10:21.694Z,26.50
2022-12-01T11:15:25.902Z,27.83
2022-12-01T11:20:35.488Z,31.40
2022-12-01T11:25:36.999Z,37.17
2022-12-01T11:30:38.469Z,31.17
2022-12-01T11:35:39.921Z,31.92
2022-12-01T11:40:59.200Z,30.30
2022-12-01T11:46:05.575Z,32.33
2022-12-01T11:51:08.026Z,35.78
2022-12-01T11:56:20.732Z,37.97
2022-12-01T12:01:35.059Z,37.38
2022-12-01T12:06:52.448Z,44.65
2022-12-01T12:12:16.974Z,48.08
2022-12-01T12:17:39.876Z,49.55
2022-12-01T12:23:12.356Z,51.13
2022-12-01T12:28:24.539Z,50.20
2022-12-01T12:33:30.197Z,54.85
2022-12-01T12:38:37.561Z,48.53
2022-12-01T12:43:58.414Z,46.50
2022-12-01T12:49:25.784Z,44.90
2022-12-01T12:54:48.347Z,46.42
2022-12-01T12:59:53.483Z,43.42
2022-12-01T13:05:10.322Z,41.20
2022-12-01T13:10:22.761Z,45.75
2022-12-01T13:15:24.241Z,48.28
2022-12-01T13:20:27.802Z,42.45
2022-12-01T13:25:34.595Z,41.25
2022-12-01T13:30:36.083Z,49.13
2022-12-01T13:35:37.911Z,40.10
2022-12-01T13:40:39.442Z,37.75
2022-12-01T13:45:40.894Z,40.97
2022-12-01T13:50:48.303Z,41.45
2022-12-01T13:56:01.321Z,39.70
2022-12-01T14:01:41.603Z,42.65
2022-12-01T14:06:50.419Z,41.63
2022-12-01T14:12:02.616Z,40.50
2022-12-01T14:17:04.211Z,33.88
2022-12-01T14:22:06.402Z,35.30
2022-12-01T14:27:07.947Z,38.17
2022-12-01T14:32:09.236Z,39.13
2022-12-01T14:37:16.249Z,37.83
2022-12-01T14:42:51.239Z,38.45
2022-12-01T14:47:57.870Z,40.03
2022-12-01T14:53:21.310Z,35.13
2022-12-01T14:58:25.847Z,39.08
2022-12-01T15:03:32.072Z,37.85
2022-12-01T15:09:10.690Z,32.85
2022-12-01T15:13:56.686Z,36.22
2022-12-01T15:18:58.227Z,39.08
2022-12-01T15:24:04.483Z,41.25
2022-12-01T15:29:14.492Z,35.25
2022-12-01T15:34:17.861Z,35.30
2022-12-01T15:39:29.715Z,39.05
2022-12-01T15:44:35.680Z,39.08
2022-12-01T15:49:48.191Z,36.40
2022-12-01T15:54:49.919Z,40.10
2022-12-01T15:59:53.980Z,39.35
2022-12-01T16:05:14.340Z,41.50
2022-12-01T16:10:33.098Z,47.00
2022-12-01T16:15:42.528Z,41.75
2022-12-01T16:25:47.283Z,47.20
2022-12-01T16:30:48.776Z,42.97
2022-12-01T16:35:50.441Z,44.63
2022-12-01T16:40:53.441Z,42.72
2022-12-01T16:51:02.522Z,35.97
2022-12-01T16:56:04.055Z,38.28
2022-12-01T17:01:06.144Z,34.22
2022-12-01T17:06:07.905Z,39.63
2022-12-01T17:11:09.600Z,39.03
2022-12-01T17:16:16.748Z,36.88
2022-12-01T17:21:19.718Z,42.30
2022-12-01T17:26:21.336Z,41.38
2022-12-01T17:31:22.910Z,41.63
2022-12-01T17:36:24.440Z,43.20
2022-12-01T17:41:32.099Z,45.63
2022-12-01T17:46:33.673Z,44.03
2022-12-01T17:51:36.310Z,44.67
2022-12-01T17:56:37.773Z,45.35
2022-12-01T18:01:41.037Z,46.90
2022-12-01T18:06:42.921Z,51.03
2022-12-01T18:11:44.474Z,48.58
2022-12-01T18:16:45.969Z,46.35
2022-12-01T18:21:47.769Z,46.45
2022-12-01T18:26:49.434Z,39.33
2022-12-01T18:31:52.807Z,40.17
2022-12-01T18:36:54.256Z,41.05
2022-12-01T18:41:56.202Z,39.30
2022-12-01T18:46:58.907Z,43.63
2022-12-01T18:52:00.423Z,45.72
2022-12-01T18:57:01.886Z,54.38
2022-12-01T19:02:03.407Z,43.25
2022-12-01T19:07:04.892Z,55.08
2022-12-01T19:12:06.535Z,44.42
2022-12-01T19:17:08.014Z,45.22
2022-12-01T19:22:09.480Z,43.35
2022-12-01T19:27:10.958Z,34.42
2022-12-01T19:32:12.460Z,48.15
2022-12-01T19:37:14.013Z,41.60
2022-12-01T19:42:15.506Z,40.00
2022-12-01T19:47:21.885Z,51.45
2022-12-01T19:52:23.959Z,42.53
2022-12-01T19:57:25.418Z,45.15
2022-12-01T20:02:29.324Z,50.65
2022-12-01T20:07:31.138Z,45.38
2022-12-01T20:12:34.048Z,47.35
2022-12-01T20:17:36.560Z,43.58
2022-12-01T20:22:38.075Z,41.30
2022-12-01T20:27:39.659Z,46.05
2022-12-01T20:32:41.116Z,47.00
2022-12-01T20:37:42.580Z,45.15
2022-12-01T20:42:44.030Z,48.60
2022-12-01T20:47:45.875Z,51.38
2022-12-01T20:52:47.328Z,49.30
2022-12-01T20:57:48.823Z,51.42
2022-12-01T21:02:50.456Z,53.78
2022-12-01T21:07:52.290Z,44.17
2022-12-01T21:13:17.936Z,52.65
2022-12-01T21:18:24.771Z,54.70
2022-12-01T21:23:26.232Z,48.35
2022-12-01T21:28:27.711Z,50.05
2022-12-01T21:33:33.346Z,49.05
2022-12-01T21:38:34.843Z,47.75
2022-12-01T21:43:38.398Z,43.92
2022-12-01T21:48:40.184Z,49.40
2022-12-01T21:53:41.666Z,47.35
2022-12-01T21:58:43.166Z,54.63
2022-12-01T22:03:45.109Z,49.72
2022-12-01T22:08:47.150Z,51.50
2022-12-01T22:14:10.077Z,48.72
2022-12-01T22:19:29.384Z,50.95
2022-12-01T22:24:39.961Z,47.97
2022-12-01T22:29:45.759Z,59.45
2022-12-01T22:34:53.692Z,51.85
2022-12-01T22:39:55.787Z,54.30
2022-12-01T22:45:02.594Z,50.67
2022-12-01T22:50:20.920Z,45.60
2022-12-01T22:55:22.406Z,45.22
2022-12-01T23:00:24.319Z,51.60
2022-12-01T23:05:27.230Z,52.92
2022-12-01T23:10:29.857Z,57.90
2022-12-01T23:15:38.002Z,49.10
2022-12-01T23:20:39.653Z,54.05
2022-12-01T23:25:41.381Z,54.72
2022-12-01T23:30:44.375Z,46.90
2022-12-01T23:40:49.169Z,50.78
2022-12-01T23:45:55.612Z,48.17
2022-12-01T23:50:57.072Z,47.85
2022-12-01T23:56:05.345Z,43.47
